M I D A S
Marine Information and Data Acquisition System
Tripno 2044 of the Zeeleeuw from 2011-02-21 07:16:07 to 2011-02-21 17:23:27
Back to CruiseResearch ActivitiesStationsMapUnderway DataData graphs

EquipmentUnitsComments
TimeDGPSUTC
LatitudeDGPSDM.mWGS84
LongitudeDGPSDM.mWGS84
SpeedMeteo Stationm/sRelative wind speed
DirectionMeteo StationdegRelative wind direction
TemperatureMeteo Stationdeg CelciusAir temperature
PressureMeteo StationPaAtmospheric pressure
HumidityMeteo Station%Relative humidity
Missing or incorrect values are displayed as -999
Metereological data collected by the RV Zeeleeuw from 2011-02-21 07:03:20 to 2011-02-21 18:21:32
Time Latitude Longitude Speed Direction Temperature Pressure Humidity
2011-02-21 07:04 51°13.663 2°55.959 0.5 322 1.9 101590 41
2011-02-21 07:05 51°13.662 2°55.959 1.2 322 1.8 -999 42
2011-02-21 07:06 51°13.662 2°55.959 2.6 39 1.8 101580 41
2011-02-21 07:07 51°13.662 2°55.96 0.3 324 1.8 101590 41
2011-02-21 07:08 51°13.662 2°55.96 0.1 34 1.8 101580 41
2011-02-21 07:09 51°13.662 2°55.961 0.1 317 1.8 101590 42
2011-02-21 07:10 51°13.662 2°55.96 1.9 330 1.7 101580 41
2011-02-21 07:11 51°13.662 2°55.96 0.9 321 1.7 101590 41
2011-02-21 07:12 51°13.661 2°55.96 2.2 321 1.7 101590 41
2011-02-21 07:13 51°13.662 2°55.959 0.2 320 1.7 101590 41
2011-02-21 07:14 51°13.662 2°55.959 0.1 319 1.7 101590 41
2011-02-21 07:15 51°13.661 2°55.96 -999 320 1.7 101590 41
2011-02-21 07:16 51°13.661 2°55.959 0.1 323 1.7 101590 41
2011-02-21 07:17 51°13.661 2°55.96 -999 329 1.7 101590 41
2011-02-21 07:18 51°13.664 2°55.944 -999 330 1.7 101590 41
2011-02-21 07:19 51°13.684 2°55.851 -999 322 1.7 101590 41
2011-02-21 07:20 51°13.69 2°55.755 -999 359 1.7 101590 41
2011-02-21 07:21 51°13.693 2°55.737 3.4 6 1.7 101580 42
2011-02-21 07:22 51°13.723 2°55.739 1 28 1.7 101580 42
2011-02-21 07:23 51°13.782 2°55.675 -999 28 1.6 101580 41
2011-02-21 07:24 51°13.895 2°55.579 -999 352 1.6 101590 42
2011-02-21 07:25 51°14.047 2°55.47 -999 8 1.6 101580 42
2011-02-21 07:26 51°14.208 2°55.347 0.2 359 1.7 101580 43
2011-02-21 07:27 51°14.372 2°55.182 1.4 9 1.6 101580 41
2011-02-21 07:28 51°14.535 2°55 2.5 360 1.6 101570 41
2011-02-21 07:29 51°14.703 2°54.767 2.9 5 1.6 101570 43
2011-02-21 07:30 51°14.885 2°54.572 4.9 2 1.6 101570 43
2011-02-21 07:31 51°15.077 2°54.423 4.5 8 1.6 101560 43
2011-02-21 07:32 51°15.275 2°54.343 7 2 1.6 101560 43
2011-02-21 07:33 51°15.479 2°54.307 6.7 358 1.6 101560 43
2011-02-21 07:34 51°15.687 2°54.24 9.6 357 1.7 101560 42
2011-02-21 07:35 51°15.898 2°54.19 7.1 -999 1.7 101560 41
2011-02-21 07:36 51°16.109 2°54.147 7.5 359 1.7 101570 43
2011-02-21 07:37 51°16.29 2°54.147 9.6 353 1.7 101570 42
2011-02-21 07:38 51°16.305 2°54.244 7.2 322 1.8 101570 43
2011-02-21 07:39 51°16.274 2°54.26 5.9 236 1.7 101590 43
2011-02-21 07:40 51°16.264 2°54.226 5.1 250 1.8 101580 44
2011-02-21 07:41 51°16.253 2°54.188 6.5 257 1.8 101590 41
2011-02-21 07:42 51°16.242 2°54.146 3.3 265 1.9 101600 42
2011-02-21 07:43 51°16.232 2°54.104 4.9 262 1.8 101600 41
2011-02-21 07:44 51°16.221 2°54.062 3.7 266 1.8 101570 42
2011-02-21 07:45 51°16.211 2°54.022 4.4 261 1.9 101580 42
2011-02-21 07:46 51°16.2 2°53.982 4.8 259 1.9 101570 42
2011-02-21 07:47 51°16.189 2°53.941 8.3 257 1.9 101570 42
2011-02-21 07:48 51°16.166 2°53.892 4 267 1.8 101570 43
2011-02-21 07:49 51°16.145 2°53.771 2.5 37 1.8 101580 41
2011-02-21 07:50 51°16.199 2°53.694 6 9 1.8 101580 41
2011-02-21 07:51 51°16.233 2°53.754 6.9 336 1.8 101580 42
2011-02-21 07:52 51°16.211 2°53.906 9.2 337 1.8 101570 43
2011-02-21 07:53 51°16.219 2°54.088 10.9 338 1.8 101560 41
2011-02-21 07:54 51°16.229 2°54.265 8.2 341 1.8 101560 41
2011-02-21 07:55 51°16.223 2°54.357 7 330 1.7 101570 41
2011-02-21 07:56 51°16.201 2°54.377 5.5 333 1.7 101570 43
2011-02-21 07:57 51°16.187 2°54.383 5.7 337 1.7 101570 41
2011-02-21 07:58 51°16.182 2°54.379 5.6 351 1.7 101570 43
2011-02-21 07:59 51°16.181 2°54.366 4.6 359 1.8 101560 42
2011-02-21 08:00 51°16.183 2°54.347 8 359 1.8 101560 42
2011-02-21 08:01 51°16.185 2°54.324 6.8 358 1.8 101550 42
2011-02-21 08:02 51°16.188 2°54.299 7.3 5 1.7 101540 41
2011-02-21 08:03 51°16.19 2°54.273 5 6 1.6 101560 43
2011-02-21 08:04 51°16.192 2°54.25 5 4 1.8 101550 44
2011-02-21 08:05 51°16.195 2°54.227 6.1 3 1.7 101550 42
2011-02-21 08:06 51°16.197 2°54.204 5.8 1 1.8 101540 44
2011-02-21 08:07 51°16.199 2°54.179 5.8 6 1.7 101550 42
2011-02-21 08:08 51°16.201 2°54.154 7 8 1.8 101550 44
2011-02-21 08:09 51°16.204 2°54.127 7.7 8 1.7 101550 43
2011-02-21 08:10 51°16.207 2°54.101 5.4 7 1.7 101550 44
2011-02-21 08:11 51°16.209 2°54.076 6.6 9 1.8 101550 44
2011-02-21 08:12 51°16.212 2°54.051 7.5 10 1.8 101540 43
2011-02-21 08:13 51°16.214 2°54.025 8 8 1.7 101550 44
2011-02-21 08:14 51°16.217 2°54 8.1 8 1.8 101540 44
2011-02-21 08:15 51°16.23 2°54.002 6.8 355 1.8 101530 44
2011-02-21 08:16 51°16.237 2°54.001 6.3 358 1.8 101530 43
2011-02-21 08:17 51°16.235 2°53.97 7.4 360 1.8 101540 43
2011-02-21 08:18 51°16.234 2°53.937 6.7 9 1.9 101530 45
2011-02-21 08:19 51°16.244 2°53.917 6.8 6 1.8 101530 45
2011-02-21 08:20 51°16.265 2°53.91 5.3 4 1.8 101530 43
2011-02-21 08:21 51°16.305 2°53.898 6.3 20 1.8 101520 44
2011-02-21 08:22 51°16.379 2°53.778 4.8 29 1.8 101530 45
2011-02-21 08:23 51°16.509 2°53.541 2.5 18 1.8 101540 43
2011-02-21 08:24 51°16.661 2°53.283 4.2 10 1.9 101550 45
2011-02-21 08:25 51°16.824 2°53.05 5.1 14 1.9 101550 45
2011-02-21 08:26 51°16.965 2°52.82 2.4 14 1.9 101550 45
2011-02-21 08:27 51°17.136 2°52.632 4.5 12 1.9 101550 43
2011-02-21 08:28 51°17.307 2°52.435 4.4 5 1.8 101550 44
2011-02-21 08:29 51°17.485 2°52.245 4.4 1 1.9 101550 43
2011-02-21 08:30 51°17.666 2°52.05 3.7 10 1.8 101560 45
2011-02-21 08:31 51°17.847 2°51.873 3.6 3 1.9 101560 43
2011-02-21 08:32 51°18.031 2°51.698 2.7 9 1.9 101560 43
2011-02-21 08:33 51°18.197 2°51.466 -999 359 1.8 101570 44
2011-02-21 08:34 51°18.356 2°51.214 0.1 1 1.9 101570 44
2011-02-21 08:35 51°18.499 2°50.967 -999 15 1.9 101580 44
2011-02-21 08:36 51°18.58 2°50.959 6.1 1 1.9 101570 45
2011-02-21 08:37 51°18.587 2°51.062 6.5 338 1.9 101570 44
2011-02-21 08:38 51°18.552 2°51.102 5.1 316 1.9 101570 45
2011-02-21 08:39 51°18.544 2°51.072 4.7 245 1.9 101570 45
2011-02-21 08:40 51°18.536 2°51.04 6.5 257 1.9 101570 44
2011-02-21 08:41 51°18.526 2°51.006 4.4 257 1.9 101570 43
2011-02-21 08:42 51°18.514 2°50.971 5.7 257 1.9 101570 44
2011-02-21 08:43 51°18.493 2°50.925 6 252 2 101570 43
2011-02-21 08:44 51°18.469 2°50.881 5.7 247 2 101570 45
2011-02-21 08:45 51°18.419 2°50.868 6 328 2 101560 45
2011-02-21 08:46 51°18.391 2°50.914 6.1 347 2 101560 43
2011-02-21 08:47 51°18.377 2°50.94 5 351 2 101560 44
2011-02-21 08:48 51°18.37 2°50.954 5.5 357 2 101550 44
2011-02-21 08:49 51°18.379 2°50.998 5.2 2 1.9 101560 44
2011-02-21 08:50 51°18.403 2°51.036 4.6 16 1.9 101560 43
2011-02-21 08:51 51°18.421 2°51.048 4.9 17 2 101570 46
2011-02-21 08:52 51°18.427 2°51.057 5.6 9 1.9 101560 43
2011-02-21 08:53 51°18.425 2°51.064 5 4 2 101550 46
2011-02-21 08:54 51°18.42 2°51.066 4.6 5 1.9 101550 45
2011-02-21 08:55 51°18.415 2°51.067 4.7 3 1.9 101550 45
2011-02-21 08:56 51°18.409 2°51.067 4.9 360 1.9 101550 43
2011-02-21 08:57 51°18.404 2°51.065 5.4 9 2 101550 45
2011-02-21 08:58 51°18.411 2°51.115 6.2 355 2 101550 45
2011-02-21 08:59 51°18.453 2°51.328 8.5 347 2 101550 45
2011-02-21 09:00 51°18.507 2°51.622 9 345 2 101520 45
2011-02-21 09:01 51°18.572 2°51.913 9.3 346 1.9 101530 43
2011-02-21 09:02 51°18.637 2°52.206 11.7 349 1.9 101530 45
2011-02-21 09:03 51°18.703 2°52.499 11.3 346 1.9 101530 44
2011-02-21 09:04 51°18.768 2°52.792 10.7 351 1.9 101530 44
2011-02-21 09:05 51°18.832 2°53.085 9.9 346 1.8 101530 44
2011-02-21 09:06 51°18.895 2°53.378 9.5 347 1.8 101530 44
2011-02-21 09:07 51°18.96 2°53.669 10.8 345 1.8 101530 45
2011-02-21 09:08 51°19.026 2°53.955 9.4 346 1.8 101520 44
2011-02-21 09:09 51°19.081 2°54.242 8.7 349 1.8 101530 43
2011-02-21 09:10 51°19.139 2°54.529 11.2 346 1.8 101540 44
2011-02-21 09:11 51°19.196 2°54.815 10.7 347 1.8 101530 44
2011-02-21 09:12 51°19.25 2°55.102 10.9 346 1.8 101530 44
2011-02-21 09:13 51°19.307 2°55.386 11.4 345 1.8 101540 45
2011-02-21 09:14 51°19.362 2°55.668 10.1 347 1.8 101540 45
2011-02-21 09:15 51°19.417 2°55.949 11.1 344 1.8 101530 45
2011-02-21 09:16 51°19.47 2°56.226 8.9 345 1.7 101540 44
2011-02-21 09:17 51°19.524 2°56.499 10.4 342 1.7 101540 45
2011-02-21 09:18 51°19.578 2°56.769 9.4 344 1.7 101550 44
2011-02-21 09:19 51°19.63 2°57.038 11.5 342 1.7 101540 44
2011-02-21 09:20 51°19.683 2°57.305 8.9 344 1.7 101530 43
2011-02-21 09:21 51°19.738 2°57.571 11.4 342 1.7 101520 44
2011-02-21 09:22 51°19.792 2°57.835 9.8 346 1.7 101520 44
2011-02-21 09:23 51°19.846 2°58.1 13.2 343 1.7 101510 44
2011-02-21 09:24 51°19.902 2°58.365 12.5 346 1.7 101510 44
2011-02-21 09:25 51°19.96 2°58.632 12.8 344 1.7 101520 44
2011-02-21 09:26 51°20.016 2°58.901 10.2 344 1.7 101520 43
2011-02-21 09:27 51°20.071 2°59.173 12.5 342 1.7 101530 44
2011-02-21 09:28 51°20.127 2°59.443 12.4 343 1.7 101510 44
2011-02-21 09:29 51°20.188 2°59.707 12.9 340 1.7 101520 44
2011-02-21 09:30 51°20.242 2°59.973 9.3 343 1.6 101510 44
2011-02-21 09:31 51°20.302 3°0.234 14.2 345 1.6 101520 44
2011-02-21 09:32 51°20.354 3°0.5 12.7 346 1.7 101520 44
2011-02-21 09:33 51°20.411 3°0.763 12.5 344 1.7 101510 45
2011-02-21 09:34 51°20.472 3°1.029 12 346 1.6 101520 44
2011-02-21 09:35 51°20.523 3°1.306 12 345 1.7 101520 44
2011-02-21 09:36 51°20.575 3°1.585 9.3 343 1.7 101520 44
2011-02-21 09:37 51°20.621 3°1.864 12.4 343 1.6 101520 44
2011-02-21 09:38 51°20.675 3°2.139 10.9 343 1.6 101510 44
2011-02-21 09:39 51°20.723 3°2.407 10.9 343 1.6 101510 44
2011-02-21 09:40 51°20.729 3°2.541 8.4 337 1.7 101530 45
2011-02-21 09:41 51°20.713 3°2.58 7.8 353 1.6 101520 45
2011-02-21 09:42 51°20.702 3°2.546 7.1 359 1.7 101530 44
2011-02-21 09:43 51°20.688 3°2.491 7.2 17 1.6 101520 44
2011-02-21 09:44 51°20.672 3°2.436 6.7 29 1.6 101530 44
2011-02-21 09:45 51°20.657 3°2.381 6.4 40 1.6 101540 44
2011-02-21 09:46 51°20.642 3°2.323 6.4 42 1.5 101540 45
2011-02-21 09:47 51°20.628 3°2.264 4.9 29 1.5 101540 45
2011-02-21 09:48 51°20.615 3°2.205 4.7 37 1.7 101540 44
2011-02-21 09:49 51°20.616 3°2.142 5.8 30 1.7 101540 44
2011-02-21 09:50 51°20.654 3°2.127 9 353 1.7 101540 46
2011-02-21 09:51 51°20.687 3°2.283 11.4 349 1.6 101530 45
2011-02-21 09:52 51°20.709 3°2.466 8.6 339 1.7 101510 44
2011-02-21 09:53 51°20.684 3°2.534 7.7 343 1.6 101520 44
2011-02-21 09:54 51°20.67 3°2.55 8 357 1.6 101520 44
2011-02-21 09:55 51°20.668 3°2.544 5.6 5 1.6 101520 44
2011-02-21 09:56 51°20.669 3°2.528 3.7 4 1.6 101520 44
2011-02-21 09:57 51°20.667 3°2.509 6.4 3 1.6 101520 45
2011-02-21 09:58 51°20.665 3°2.485 6.8 2 1.6 101510 44
2011-02-21 09:59 51°20.661 3°2.458 8 358 1.6 101510 45
2011-02-21 10:00 51°20.656 3°2.43 5.3 6 1.6 101510 46
2011-02-21 10:01 51°20.651 3°2.401 7.3 7 1.6 101510 44
2011-02-21 10:02 51°20.646 3°2.374 5.8 8 1.6 101520 46
2011-02-21 10:03 51°20.643 3°2.349 6.6 10 1.6 101520 45
2011-02-21 10:04 51°20.639 3°2.328 4.6 16 1.8 101530 45
2011-02-21 10:05 51°20.638 3°2.307 5.4 9 1.7 101520 44
2011-02-21 10:06 51°20.639 3°2.291 4.9 11 1.7 101530 45
2011-02-21 10:07 51°20.667 3°2.324 6.2 7 1.6 101520 43
2011-02-21 10:08 51°20.735 3°2.4 4.2 2 1.6 101510 45
2011-02-21 10:09 51°20.819 3°2.529 8.1 355 1.6 101510 45
2011-02-21 10:10 51°20.912 3°2.762 8.3 353 1.6 101520 45
2011-02-21 10:11 51°21.009 3°3.012 8.1 357 1.6 101520 45
2011-02-21 10:12 51°21.083 3°3.286 9.6 348 1.6 101500 44
2011-02-21 10:13 51°21.148 3°3.568 8.9 351 1.6 101500 44
2011-02-21 10:14 51°21.214 3°3.85 10.3 347 1.6 101490 44
2011-02-21 10:15 51°21.281 3°4.132 11.2 346 1.6 101500 45
2011-02-21 10:16 51°21.349 3°4.412 9.7 349 1.6 101490 44
2011-02-21 10:17 51°21.417 3°4.694 10.2 347 1.6 101500 44
2011-02-21 10:18 51°21.483 3°4.982 9.3 348 1.6 101500 44
2011-02-21 10:19 51°21.54 3°5.273 10.2 347 1.7 101500 45
2011-02-21 10:20 51°21.601 3°5.558 9.7 350 1.7 101490 44
2011-02-21 10:21 51°21.661 3°5.843 11.5 347 1.7 101500 45
2011-02-21 10:22 51°21.723 3°6.129 13.1 346 1.6 101500 45
2011-02-21 10:23 51°21.786 3°6.419 12 345 1.6 101490 45
2011-02-21 10:24 51°21.848 3°6.715 10.2 346 1.7 101490 44
2011-02-21 10:25 51°21.913 3°7.011 12.1 347 1.6 101490 45
2011-02-21 10:26 51°21.977 3°7.306 10.1 347 1.7 101490 44
2011-02-21 10:27 51°22.041 3°7.601 11.7 343 1.7 101480 44
2011-02-21 10:28 51°22.109 3°7.893 5.7 345 1.7 101490 44
2011-02-21 10:29 51°22.157 3°8.193 9.4 343 1.7 101510 44
2011-02-21 10:30 51°22.196 3°8.496 13.5 339 1.8 101500 45
2011-02-21 10:31 51°22.225 3°8.804 13.3 341 1.8 101480 45
2011-02-21 10:32 51°22.255 3°9.114 9.6 339 1.7 101490 43
2011-02-21 10:33 51°22.287 3°9.425 12.3 341 1.7 101490 44
2011-02-21 10:34 51°22.302 3°9.738 12.2 339 1.7 101490 44
2011-02-21 10:35 51°22.3 3°10.055 9.8 337 1.8 101490 44
2011-02-21 10:36 51°22.302 3°10.375 9.9 341 1.8 101500 44
2011-02-21 10:37 51°22.308 3°10.699 9.5 339 1.8 101500 45
2011-02-21 10:38 51°22.356 3°11.009 12.7 344 1.9 101490 45
2011-02-21 10:39 51°22.441 3°11.303 12.7 341 1.8 101490 44
2011-02-21 10:40 51°22.502 3°11.605 14.2 341 1.8 101490 43
2011-02-21 10:41 51°22.541 3°11.916 11.7 337 1.8 101490 44
2011-02-21 10:42 51°22.561 3°12.227 11.8 340 1.8 101490 43
2011-02-21 10:43 51°22.568 3°12.408 7.7 346 1.8 101490 44
2011-02-21 10:44 51°22.571 3°12.505 8.7 349 1.7 101500 44
2011-02-21 10:45 51°22.573 3°12.566 7.3 349 1.7 101500 43
2011-02-21 10:46 51°22.575 3°12.607 6.6 349 1.7 101510 44
2011-02-21 10:47 51°22.581 3°12.644 8.1 342 1.7 101510 45
2011-02-21 10:48 51°22.594 3°12.775 9.6 342 1.7 101500 43
2011-02-21 10:49 51°22.6 3°12.937 8.7 338 1.7 101500 45
2011-02-21 10:50 51°22.588 3°13.09 8.4 330 1.8 101500 43
2011-02-21 10:51 51°22.551 3°13.124 7.9 242 1.8 101510 44
2011-02-21 10:52 51°22.55 3°13.105 4 264 1.8 101500 43
2011-02-21 10:53 51°22.549 3°13.085 5.5 269 1.9 101520 43
2011-02-21 10:54 51°22.547 3°13.064 6.1 31 1.8 101510 43
2011-02-21 10:55 51°22.545 3°13.039 6.3 31 1.8 101510 44
2011-02-21 10:56 51°22.541 3°13.012 5.7 34 1.8 101510 42
2011-02-21 10:57 51°22.536 3°12.985 4.8 266 1.8 101510 43
2011-02-21 10:58 51°22.522 3°12.933 4.8 37 1.8 101510 43
2011-02-21 10:59 51°22.55 3°12.837 4.8 24 1.8 101530 44
2011-02-21 11:00 51°22.608 3°12.863 6.8 349 1.9 101510 43
2011-02-21 11:01 51°22.611 3°12.983 9 343 1.8 101500 44
2011-02-21 11:02 51°22.622 3°13.134 9 346 1.8 101500 44
2011-02-21 11:03 51°22.634 3°13.232 7.9 348 1.7 101500 44
2011-02-21 11:04 51°22.634 3°13.244 6.3 344 1.7 101510 43
2011-02-21 11:05 51°22.632 3°13.245 6.5 347 1.7 101510 44
2011-02-21 11:06 51°22.63 3°13.24 5.3 340 1.7 101500 44
2011-02-21 11:07 51°22.629 3°13.231 -999 344 1.8 101500 43
2011-02-21 11:08 51°22.628 3°13.22 6.2 360 1.8 101500 43
2011-02-21 11:09 51°22.63 3°13.209 4.1 7 1.9 101490 45
2011-02-21 11:10 51°22.634 3°13.199 6.1 11 1.8 101500 45
2011-02-21 11:11 51°22.639 3°13.192 5.2 12 1.9 101500 44
2011-02-21 11:12 51°22.645 3°13.184 6.5 9 2 101500 43
2011-02-21 11:13 51°22.652 3°13.179 6.1 15 2 101500 45
2011-02-21 11:14 51°22.66 3°13.174 5.6 14 2 101500 45
2011-02-21 11:15 51°22.696 3°13.188 5.1 27 1.9 101490 45
2011-02-21 11:16 51°22.773 3°13.076 0.1 320 2 101510 45
2011-02-21 11:17 51°22.851 3°12.815 0.1 29 2.1 101520 44
2011-02-21 11:18 51°22.935 3°12.487 1 242 2.2 101510 43
2011-02-21 11:19 51°23.023 3°12.153 0.9 239 2.2 101510 45
2011-02-21 11:20 51°23.11 3°11.817 0.2 37 2.2 101520 43
2011-02-21 11:21 51°23.209 3°11.49 2.1 32 2.2 101510 46
2011-02-21 11:22 51°23.317 3°11.172 1.6 301 2.3 101510 44
2011-02-21 11:23 51°23.428 3°10.859 1.7 34 2.3 101510 44
2011-02-21 11:24 51°23.546 3°10.555 0.8 30 2.3 101510 44
2011-02-21 11:25 51°23.668 3°10.255 0.2 37 2.3 101510 44
2011-02-21 11:26 51°23.792 3°9.955 0.4 326 2.4 101520 45
2011-02-21 11:27 51°23.918 3°9.654 0.9 318 2.4 101520 44
2011-02-21 11:28 51°24.047 3°9.356 1.5 322 2.3 101520 42
2011-02-21 11:29 51°24.177 3°9.061 1.2 321 2.4 101520 44
2011-02-21 11:30 51°24.308 3°8.773 1 31 2.4 101520 44
2011-02-21 11:31 51°24.429 3°8.491 1.1 30 2.4 101520 44
2011-02-21 11:32 51°24.544 3°8.205 0.4 249 2.4 101510 44
2011-02-21 11:33 51°24.663 3°7.922 1.1 305 2.4 101520 44
2011-02-21 11:34 51°24.779 3°7.638 0.6 323 2.5 101520 44
2011-02-21 11:35 51°24.959 3°7.537 4.7 2 2.5 101510 44
2011-02-21 11:36 51°25.146 3°7.586 5.4 358 2.5 101500 44
2011-02-21 11:37 51°25.328 3°7.682 2.6 4 2.3 101500 43
2011-02-21 11:38 51°25.512 3°7.777 4.7 1 2.2 101500 45
2011-02-21 11:39 51°25.696 3°7.88 5.4 359 2.1 101490 43
2011-02-21 11:40 51°25.881 3°7.976 5.5 360 2.1 101490 44
2011-02-21 11:41 51°26.064 3°8.074 2.3 1 2 101490 43
2011-02-21 11:42 51°26.247 3°8.171 4.1 2 2.1 101490 46
2011-02-21 11:43 51°26.424 3°8.265 4.6 4 2.1 101490 44
2011-02-21 11:44 51°26.513 3°8.334 6 8 2.1 101490 44
2011-02-21 11:45 51°26.515 3°8.414 6.9 343 2.1 101480 44
2011-02-21 11:46 51°26.466 3°8.464 5.1 320 2.1 101490 44
2011-02-21 11:47 51°26.44 3°8.452 6.6 251 2.2 101480 44
2011-02-21 11:48 51°26.423 3°8.436 6.6 256 2.2 101480 44
2011-02-21 11:49 51°26.406 3°8.42 3.6 265 2.2 101480 45
2011-02-21 11:50 51°26.387 3°8.402 2.6 259 2.2 101480 46
2011-02-21 11:51 51°26.368 3°8.383 4 264 2.2 101480 46
2011-02-21 11:52 51°26.349 3°8.363 4 259 2.2 101480 44
2011-02-21 11:53 51°26.329 3°8.344 4.7 259 2.2 101480 44
2011-02-21 11:54 51°26.308 3°8.325 6.9 256 2.2 101470 44
2011-02-21 11:55 51°26.287 3°8.304 5.3 257 2.2 101470 44
2011-02-21 11:56 51°26.265 3°8.283 6.5 259 2.3 101470 44
2011-02-21 11:57 51°26.242 3°8.261 6.1 258 2.3 101460 44
2011-02-21 11:58 51°26.22 3°8.237 4.1 257 2.3 101460 43
2011-02-21 11:59 51°26.197 3°8.214 5.7 250 2.4 101470 44
2011-02-21 12:00 51°26.174 3°8.191 5.7 254 2.5 101460 44
2011-02-21 12:01 51°26.15 3°8.168 6 254 2.5 101460 44
2011-02-21 12:02 51°26.126 3°8.145 6.9 257 2.5 101460 45
2011-02-21 12:03 51°26.103 3°8.123 7.7 254 2.4 101460 44
2011-02-21 12:04 51°26.08 3°8.102 6.3 258 2.4 101460 44
2011-02-21 12:05 51°26.058 3°8.081 7.2 257 2.4 101460 44
2011-02-21 12:06 51°26.037 3°8.061 4.9 260 2.4 101460 43
2011-02-21 12:07 51°26.016 3°8.042 5.4 260 2.3 101460 43
2011-02-21 12:08 51°25.994 3°8.024 6.5 261 2.3 101470 44
2011-02-21 12:09 51°25.973 3°8.006 4.4 250 2.3 101460 45
2011-02-21 12:10 51°25.927 3°7.986 6 34 2.4 101450 45
2011-02-21 12:11 51°25.836 3°7.953 8 253 2.3 101440 44
2011-02-21 12:12 51°25.779 3°7.816 2.1 29 2.3 101450 43
2011-02-21 12:13 51°25.808 3°7.684 2.3 33 2.3 101470 44
2011-02-21 12:14 51°25.888 3°7.544 1.6 33 2.3 101450 44
2011-02-21 12:15 51°25.994 3°7.335 0.1 17 2.3 101460 44
2011-02-21 12:16 51°26.121 3°7.085 1.1 12 2.3 101460 44
2011-02-21 12:17 51°26.253 3°6.829 0.1 25 2.3 101460 44
2011-02-21 12:18 51°26.389 3°6.582 1.9 9 2.3 101460 43
2011-02-21 12:19 51°26.531 3°6.342 2.6 11 2.3 101460 45
2011-02-21 12:20 51°26.68 3°6.118 0.1 12 2.2 101460 44
2011-02-21 12:21 51°26.83 3°5.895 0.2 25 2.2 101440 45
2011-02-21 12:22 51°26.985 3°5.677 2.9 16 2.3 101440 45
2011-02-21 12:23 51°27.133 3°5.439 0.1 21 2.3 101450 44
2011-02-21 12:24 51°27.28 3°5.198 1.8 7 2.3 101440 44
2011-02-21 12:25 51°27.432 3°4.97 2.1 8 2.2 101440 46
2011-02-21 12:26 51°27.582 3°4.737 0.5 351 2.2 101440 44
2011-02-21 12:27 51°27.718 3°4.476 -999 355 2.2 101440 44
2011-02-21 12:28 51°27.863 3°4.228 0.1 15 2.2 101430 45
2011-02-21 12:29 51°28.011 3°3.979 0.1 10 2.1 101430 44
2011-02-21 12:30 51°28.156 3°3.722 0.3 14 2.2 101430 45
2011-02-21 12:31 51°28.248 3°3.519 2 43 2.2 101430 44
2011-02-21 12:32 51°28.312 3°3.476 6.7 11 2.2 101420 44
2011-02-21 12:33 51°28.328 3°3.552 7.5 340 2.3 101410 46
2011-02-21 12:34 51°28.283 3°3.601 6.6 33 2.3 101410 45
2011-02-21 12:35 51°28.268 3°3.589 6.8 259 2.3 101420 44
2011-02-21 12:36 51°28.26 3°3.578 3.5 265 2.4 101400 44
2011-02-21 12:37 51°28.251 3°3.564 5.6 268 2.4 101400 46
2011-02-21 12:38 51°28.242 3°3.549 5.4 263 2.4 101400 45
2011-02-21 12:39 51°28.232 3°3.532 5.5 270 2.3 101400 44
2011-02-21 12:40 51°28.22 3°3.514 7.6 258 2.4 101400 44
2011-02-21 12:41 51°28.208 3°3.497 6.8 259 2.4 101400 44
2011-02-21 12:42 51°28.196 3°3.48 6.5 261 2.4 101400 45
2011-02-21 12:43 51°28.183 3°3.465 7.2 259 2.5 101400 46
2011-02-21 12:44 51°28.17 3°3.449 7.5 257 2.5 101390 46
2011-02-21 12:45 51°28.156 3°3.434 7.4 256 2.5 101390 46
2011-02-21 12:46 51°28.143 3°3.42 8.6 254 2.5 101380 46
2011-02-21 12:47 51°28.131 3°3.407 7.4 256 2.4 101390 46
2011-02-21 12:48 51°28.117 3°3.394 8.7 255 2.5 101380 43
2011-02-21 12:49 51°28.103 3°3.381 6.9 253 2.4 101380 45
2011-02-21 12:50 51°28.09 3°3.369 5.3 251 2.4 101380 45
2011-02-21 12:51 51°28.076 3°3.36 7.5 250 2.5 101370 44
2011-02-21 12:52 51°28.062 3°3.351 6.3 248 2.5 101370 46
2011-02-21 12:53 51°28.048 3°3.343 6.8 251 2.6 101380 46
2011-02-21 12:54 51°28.034 3°3.334 7.5 248 2.5 101370 44
2011-02-21 12:55 51°28.02 3°3.327 6.9 250 2.6 101370 44
2011-02-21 12:56 51°28.007 3°3.319 6.5 251 2.6 101360 45
2011-02-21 12:57 51°27.994 3°3.314 6.5 251 2.6 101360 45
2011-02-21 12:58 51°27.982 3°3.308 6.4 252 2.6 101350 44
2011-02-21 12:59 51°27.971 3°3.303 8.4 256 2.6 101350 45
2011-02-21 13:00 51°27.958 3°3.299 8.2 256 2.6 101350 44
2011-02-21 13:01 51°27.945 3°3.295 8.9 251 2.6 101340 44
2011-02-21 13:02 51°27.934 3°3.293 7 253 2.6 101350 45
2011-02-21 13:03 51°27.917 3°3.289 9.2 258 2.7 101370 46
2011-02-21 13:04 51°27.882 3°3.242 5.3 35 2.6 101350 45
2011-02-21 13:05 51°27.854 3°3.083 2.9 265 2.6 101360 46
2011-02-21 13:06 51°27.826 3°2.766 0.1 262 2.6 101360 45
2011-02-21 13:07 51°27.806 3°2.429 3.1 258 2.6 101360 46
2011-02-21 13:08 51°27.784 3°2.097 2 257 2.6 101360 44
2011-02-21 13:09 51°27.754 3°1.769 3.6 259 2.6 101360 45
2011-02-21 13:10 51°27.719 3°1.445 2.2 261 2.6 101340 45
2011-02-21 13:11 51°27.684 3°1.123 4.4 258 2.6 101340 45
2011-02-21 13:12 51°27.652 3°0.799 3.5 256 2.7 101340 45
2011-02-21 13:13 51°27.619 3°0.474 0.7 260 2.6 101330 46
2011-02-21 13:14 51°27.586 3°0.146 0.8 40 2.6 101330 45
2011-02-21 13:15 51°27.556 2°59.817 3.8 257 2.7 101330 45
2011-02-21 13:16 51°27.519 2°59.497 0.6 260 2.7 101330 46
2011-02-21 13:17 51°27.476 2°59.169 1 267 2.7 101330 45
2011-02-21 13:18 51°27.434 2°58.848 2.1 260 2.7 101330 46
2011-02-21 13:19 51°27.395 2°58.529 1.2 267 2.6 101330 45
2011-02-21 13:20 51°27.354 2°58.214 0.9 268 2.6 101340 44
2011-02-21 13:21 51°27.318 2°57.899 1.7 261 2.7 101330 44
2011-02-21 13:22 51°27.283 2°57.579 2.8 260 2.7 101320 47
2011-02-21 13:23 51°27.248 2°57.26 1.2 255 2.7 101320 45
2011-02-21 13:24 51°27.215 2°56.937 0.4 259 2.8 101310 46
2011-02-21 13:25 51°27.182 2°56.622 0.2 269 2.8 101320 45
2011-02-21 13:26 51°27.153 2°56.306 0.1 255 2.9 101310 46
2011-02-21 13:27 51°27.122 2°55.982 1.2 248 2.9 101310 46
2011-02-21 13:28 51°27.095 2°55.657 2.3 251 2.9 101310 45
2011-02-21 13:29 51°27.067 2°55.332 3.6 257 2.9 101310 44
2011-02-21 13:30 51°27.039 2°55.011 2.8 256 2.9 101310 44
2011-02-21 13:31 51°26.997 2°54.694 1.8 259 2.9 101310 44
2011-02-21 13:32 51°26.958 2°54.388 5.9 252 2.9 101310 46
2011-02-21 13:33 51°26.919 2°54.07 4.1 250 3 101340 45
2011-02-21 13:34 51°26.881 2°53.758 3.2 260 3 101320 47
2011-02-21 13:35 51°26.841 2°53.439 2.8 248 3 101320 47
2011-02-21 13:36 51°26.805 2°53.116 4.7 251 3 101320 46
2011-02-21 13:37 51°26.764 2°52.801 4.2 254 3 101310 46
2011-02-21 13:38 51°26.723 2°52.501 4.5 251 3 101300 46
2011-02-21 13:39 51°26.686 2°52.202 5.5 259 3 101300 45
2011-02-21 13:40 51°26.648 2°51.903 5.4 256 3 101290 47
2011-02-21 13:41 51°26.6 2°51.614 4.9 259 3 101300 47
2011-02-21 13:42 51°26.548 2°51.315 4 253 2.9 101290 47
2011-02-21 13:43 51°26.499 2°51.024 4.7 256 2.9 101290 45
2011-02-21 13:44 51°26.445 2°50.726 2.9 262 3 101290 44
2011-02-21 13:45 51°26.396 2°50.441 3.5 256 3 101290 45
2011-02-21 13:46 51°26.343 2°50.145 4.2 254 3 101290 45
2011-02-21 13:47 51°26.295 2°49.855 4.5 256 3 101290 47
2011-02-21 13:48 51°26.248 2°49.561 2.7 258 3.1 101290 47
2011-02-21 13:49 51°26.203 2°49.269 1.1 264 3 101310 46
2011-02-21 13:50 51°26.154 2°48.979 2.4 261 3 101300 46
2011-02-21 13:51 51°26.108 2°48.696 2.5 44 3.1 101300 47
2011-02-21 13:52 51°26.077 2°48.564 4.4 262 3 101300 44
2011-02-21 13:53 51°26.036 2°48.544 7.7 260 3.1 101270 46
2011-02-21 13:54 51°26.01 2°48.539 6.4 262 3.1 101270 47
2011-02-21 13:55 51°26.004 2°48.557 6 262 3 101270 46
2011-02-21 13:56 51°26.004 2°48.582 7.3 252 3.1 101270 47
2011-02-21 13:57 51°26.008 2°48.612 8.2 253 3.1 101270 46
2011-02-21 13:58 51°26.016 2°48.644 8.5 250 3.1 101270 48
2011-02-21 13:59 51°26.025 2°48.676 7.6 249 3.2 101270 46
2011-02-21 14:00 51°26.006 2°48.71 7.9 251 3.2 101260 46
2011-02-21 14:01 51°25.946 2°48.674 3.7 263 3.1 101280 47
2011-02-21 14:02 51°25.875 2°48.508 6 259 3.2 101280 47
2011-02-21 14:03 51°25.797 2°48.247 4.8 257 3.1 101270 47
2011-02-21 14:04 51°25.714 2°47.977 5 254 3.1 101280 46
2011-02-21 14:05 51°25.633 2°47.717 5.2 252 3.1 101270 46
2011-02-21 14:06 51°25.549 2°47.45 2.3 254 3.1 101280 48
2011-02-21 14:07 51°25.467 2°47.179 5.3 257 3.1 101270 46
2011-02-21 14:08 51°25.381 2°46.913 4.8 250 3.2 101280 47
2011-02-21 14:09 51°25.298 2°46.646 4.4 255 3.2 101280 47
2011-02-21 14:10 51°25.219 2°46.376 5.8 249 3.2 101290 48
2011-02-21 14:11 51°25.14 2°46.109 4.7 253 3.2 101270 48
2011-02-21 14:12 51°25.055 2°45.842 4.2 248 3.2 101290 47
2011-02-21 14:13 51°24.972 2°45.569 4.1 254 3.2 101290 46
2011-02-21 14:14 51°24.888 2°45.299 4.3 253 3.3 101290 46
2011-02-21 14:15 51°24.803 2°45.031 4.5 251 3.3 101290 46
2011-02-21 14:16 51°24.722 2°44.759 5 252 3.3 101280 47
2011-02-21 14:17 51°24.639 2°44.49 2.6 261 3.3 101280 48
2011-02-21 14:18 51°24.558 2°44.222 4 258 3.3 101280 46
2011-02-21 14:19 51°24.475 2°43.959 5.4 255 3.3 101280 48
2011-02-21 14:20 51°24.396 2°43.688 3.5 251 3.3 101280 46
2011-02-21 14:21 51°24.314 2°43.418 4.8 251 3.3 101280 47
2011-02-21 14:22 51°24.231 2°43.148 3.5 258 3.3 101280 48
2011-02-21 14:23 51°24.146 2°42.89 4.7 256 3.4 101270 47
2011-02-21 14:24 51°24.062 2°42.628 5.5 252 3.4 101270 45
2011-02-21 14:25 51°23.979 2°42.363 5.8 256 3.5 101270 48
2011-02-21 14:26 51°23.898 2°42.093 3.4 251 3.4 101260 48
2011-02-21 14:27 51°23.816 2°41.828 6 257 3.4 101270 46
2011-02-21 14:28 51°23.738 2°41.563 5.5 253 3.5 101270 48
2011-02-21 14:29 51°23.655 2°41.285 4.8 253 3.4 101270 48
2011-02-21 14:30 51°23.576 2°41.017 4.7 248 3.4 101270 47
2011-02-21 14:31 51°23.495 2°40.753 4.8 254 3.4 101270 47
2011-02-21 14:32 51°23.414 2°40.488 3.7 254 3.4 101270 46
2011-02-21 14:33 51°23.334 2°40.222 4 255 3.4 101260 47
2011-02-21 14:34 51°23.254 2°39.952 3.4 252 3.4 101260 46
2011-02-21 14:35 51°23.166 2°39.694 5.2 260 3.4 101260 47
2011-02-21 14:36 51°23.079 2°39.435 0.2 261 3.4 101270 48
2011-02-21 14:37 51°22.994 2°39.177 5.6 253 3.4 101260 48
2011-02-21 14:38 51°22.904 2°38.917 4.9 257 3.4 101260 47
2011-02-21 14:39 51°22.816 2°38.653 3.9 253 3.5 101260 47
2011-02-21 14:40 51°22.728 2°38.391 4.1 253 3.5 101260 47
2011-02-21 14:41 51°22.638 2°38.132 0.2 253 3.5 101270 46
2011-02-21 14:42 51°22.551 2°37.874 0.2 251 3.5 101270 48
2011-02-21 14:43 51°22.544 2°37.58 -999 259 3.5 101270 47
2011-02-21 14:44 51°22.551 2°37.28 0.3 262 3.6 101270 47
2011-02-21 14:45 51°22.567 2°36.98 -999 260 3.5 101270 47
2011-02-21 14:46 51°22.58 2°36.674 0.1 255 3.5 101280 47
2011-02-21 14:47 51°22.593 2°36.368 0.1 247 3.5 101270 47
2011-02-21 14:48 51°22.499 2°36.131 6.3 311 3.5 101270 46
2011-02-21 14:49 51°22.37 2°35.909 4.6 246 3.5 101260 48
2011-02-21 14:50 51°22.247 2°35.683 4.9 305 3.5 101260 48
2011-02-21 14:51 51°22.132 2°35.444 4.1 244 3.6 101270 46
2011-02-21 14:52 51°22.021 2°35.201 5.5 306 3.6 101260 48
2011-02-21 14:53 51°21.911 2°34.956 4.5 303 3.7 101250 48
2011-02-21 14:54 51°21.797 2°34.717 5.8 247 3.7 101250 49
2011-02-21 14:55 51°21.683 2°34.48 6.4 245 3.7 101250 47
2011-02-21 14:56 51°21.572 2°34.238 5.9 252 3.7 101250 46
2011-02-21 14:57 51°21.461 2°33.997 5.1 305 3.7 101240 47
2011-02-21 14:58 51°21.352 2°33.755 5.8 302 3.7 101250 47
2011-02-21 14:59 51°21.255 2°33.509 7.1 249 3.7 101250 47
2011-02-21 15:00 51°21.155 2°33.25 6.1 251 3.8 101250 47
2011-02-21 15:01 51°21.057 2°32.998 5.6 311 3.8 101240 48
2011-02-21 15:02 51°20.961 2°32.741 6.2 244 3.8 101240 47
2011-02-21 15:03 51°20.862 2°32.481 3.7 246 3.8 101240 48
2011-02-21 15:04 51°20.761 2°32.223 5.2 307 3.8 101240 46
2011-02-21 15:05 51°20.662 2°31.966 5.4 242 3.8 101240 47
2011-02-21 15:06 51°20.557 2°31.71 5.9 303 3.8 101240 47
2011-02-21 15:07 51°20.454 2°31.456 4.4 242 3.8 101240 47
2011-02-21 15:08 51°20.355 2°31.204 6.4 305 3.8 101230 49
2011-02-21 15:09 51°20.252 2°30.961 7.7 250 3.9 101230 49
2011-02-21 15:10 51°20.148 2°30.715 5.2 253 3.9 101230 49
2011-02-21 15:11 51°20.049 2°30.468 5.1 260 3.9 101230 48
2011-02-21 15:12 51°19.965 2°30.211 5.5 260 3.9 101230 48
2011-02-21 15:13 51°19.93 2°30.033 4.5 35 3.9 101230 49
2011-02-21 15:14 51°19.999 2°30.012 5.7 29 3.9 101230 47
2011-02-21 15:15 51°20.073 2°30.076 6.5 3 3.9 101230 48
2011-02-21 15:16 51°20.107 2°30.22 8 324 3.9 101230 49
2011-02-21 15:17 51°20.095 2°30.316 9.3 249 3.8 101240 49
2011-02-21 15:18 51°20.108 2°30.36 6.2 262 3.8 101230 48
2011-02-21 15:19 51°20.12 2°30.399 5.4 263 3.8 101230 48
2011-02-21 15:20 51°20.131 2°30.439 6.2 262 3.8 101260 48
2011-02-21 15:21 51°20.143 2°30.481 6.5 259 3.9 101260 48
2011-02-21 15:22 51°20.151 2°30.522 8.5 257 3.9 101260 48
2011-02-21 15:23 51°20.148 2°30.562 7 244 3.9 101230 48
2011-02-21 15:24 51°20.09 2°30.654 9.6 316 3.9 101220 49
2011-02-21 15:25 51°20.01 2°30.852 12 317 3.9 101210 47
2011-02-21 15:26 51°19.887 2°31.088 11.7 309 3.8 101200 47
2011-02-21 15:27 51°19.749 2°31.335 14.1 321 3.9 101210 48
2011-02-21 15:28 51°19.603 2°31.599 12.2 303 3.9 101210 47
2011-02-21 15:29 51°19.463 2°31.857 11.9 319 3.9 101200 48
2011-02-21 15:30 51°19.317 2°32.121 13.8 319 3.9 101210 48
2011-02-21 15:31 51°19.174 2°32.38 10.8 320 3.9 101200 47
2011-02-21 15:32 51°19.032 2°32.64 11.3 321 3.9 101200 47
2011-02-21 15:33 51°18.894 2°32.897 12.1 317 3.9 101200 47
2011-02-21 15:34 51°18.754 2°33.164 13.8 317 3.9 101200 48
2011-02-21 15:35 51°18.619 2°33.42 9.1 321 3.9 101200 46
2011-02-21 15:36 51°18.482 2°33.681 11.2 317 3.9 101190 46
2011-02-21 15:37 51°18.339 2°33.944 12.5 307 4 101200 47
2011-02-21 15:38 51°18.202 2°34.202 16.5 317 4 101190 47
2011-02-21 15:39 51°18.062 2°34.473 12.5 317 3.9 101190 46
2011-02-21 15:40 51°17.921 2°34.741 11 318 3.9 101200 46
2011-02-21 15:41 51°17.779 2°35.01 11.4 317 4 101200 47
2011-02-21 15:42 51°17.636 2°35.275 11.4 315 3.9 101190 47
2011-02-21 15:43 51°17.483 2°35.539 13.6 320 3.9 101200 47
2011-02-21 15:44 51°17.335 2°35.798 13 319 3.9 101210 46
2011-02-21 15:45 51°17.184 2°36.056 12.6 321 4 101200 47
2011-02-21 15:46 51°17.031 2°36.318 14 307 3.9 101200 47
2011-02-21 15:47 51°16.886 2°36.571 10.8 317 3.9 101190 46
2011-02-21 15:48 51°16.735 2°36.804 10.4 31 3.9 101190 47
2011-02-21 15:49 51°16.657 2°36.813 6.7 259 3.9 101220 47
2011-02-21 15:50 51°16.64 2°36.791 6.3 38 3.9 101260 45
2011-02-21 15:51 51°16.657 2°36.813 6.2 32 3.8 101240 47
2011-02-21 15:52 51°16.674 2°36.83 6.8 32 3.8 101240 44
2011-02-21 15:53 51°16.691 2°36.844 7.1 270 3.8 101250 45
2011-02-21 15:54 51°16.71 2°36.86 5.2 265 3.8 101250 47
2011-02-21 15:55 51°16.726 2°36.876 4.4 263 3.8 101240 47
2011-02-21 15:56 51°16.743 2°36.894 5.4 262 3.8 101240 47
2011-02-21 15:57 51°16.733 2°36.911 7 246 3.8 101220 47
2011-02-21 15:58 51°16.645 2°36.924 9.4 238 3.8 101210 46
2011-02-21 15:59 51°16.512 2°36.963 11 35 3.8 101200 46
2011-02-21 16:00 51°16.345 2°36.957 10.5 237 3.8 101200 44
2011-02-21 16:01 51°16.155 2°36.93 10.2 35 3.8 101190 46
2011-02-21 16:02 51°15.96 2°36.9 10.9 35 3.8 101190 46
2011-02-21 16:03 51°15.76 2°36.867 9.3 234 3.8 101190 47
2011-02-21 16:04 51°15.567 2°36.836 9.3 239 3.8 101200 46
2011-02-21 16:05 51°15.369 2°36.799 9.4 236 3.9 101190 47
2011-02-21 16:06 51°15.17 2°36.771 9 31 3.8 101190 47
2011-02-21 16:07 51°14.975 2°36.748 9.3 237 3.8 101190 47
2011-02-21 16:08 51°14.771 2°36.762 11 35 3.8 101180 45
2011-02-21 16:09 51°14.571 2°36.851 10.8 34 3.8 101170 46
2011-02-21 16:10 51°14.373 2°36.944 12 29 3.7 101180 46
2011-02-21 16:11 51°14.178 2°37.035 10.4 35 3.8 101180 45
2011-02-21 16:12 51°13.977 2°37.132 9.5 35 3.8 101180 46
2011-02-21 16:13 51°13.774 2°37.225 10.3 30 3.9 101180 47
2011-02-21 16:14 51°13.57 2°37.285 10.6 35 3.8 101170 47
2011-02-21 16:15 51°13.365 2°37.248 10 232 3.8 101180 47
2011-02-21 16:16 51°13.157 2°37.267 11.6 34 3.9 101180 45
2011-02-21 16:17 51°12.95 2°37.289 10.2 34 3.9 101180 46
2011-02-21 16:18 51°12.746 2°37.303 9.5 33 3.8 101180 47
2011-02-21 16:19 51°12.535 2°37.293 10.2 237 3.9 101170 46
2011-02-21 16:20 51°12.337 2°37.229 10.2 240 3.9 101180 46
2011-02-21 16:21 51°12.135 2°37.138 8.9 31 3.8 101180 46
2011-02-21 16:22 51°11.939 2°37.061 8.8 239 3.8 101190 46
2011-02-21 16:23 51°11.736 2°36.98 7.8 242 3.8 101190 47
2011-02-21 16:24 51°11.533 2°36.895 8.4 241 3.8 101190 45
2011-02-21 16:25 51°11.336 2°36.816 9.5 240 3.8 101190 47
2011-02-21 16:26 51°11.132 2°36.735 8.4 239 3.8 101190 45
2011-02-21 16:27 51°10.936 2°36.657 9.2 241 3.8 101190 46
2011-02-21 16:28 51°10.733 2°36.58 9 239 3.8 101190 46
2011-02-21 16:29 51°10.537 2°36.521 10.3 35 3.7 101190 46
2011-02-21 16:30 51°10.347 2°36.639 12.6 316 3.7 101170 46
2011-02-21 16:31 51°10.214 2°36.902 13.4 323 3.7 101170 46
2011-02-21 16:32 51°10.192 2°37.254 14.3 334 3.7 101180 45
2011-02-21 16:33 51°10.215 2°37.614 12.2 334 3.7 101170 45
2011-02-21 16:34 51°10.256 2°37.982 14.5 336 3.6 101170 46
2011-02-21 16:35 51°10.297 2°38.344 12.3 337 3.6 101180 46
2011-02-21 16:36 51°10.347 2°38.698 13.5 338 3.7 101170 46
2011-02-21 16:37 51°10.407 2°39.058 14.4 338 3.7 101180 46
2011-02-21 16:38 51°10.467 2°39.418 14.2 338 3.6 101180 45
2011-02-21 16:39 51°10.533 2°39.778 13.4 340 3.6 101190 46
2011-02-21 16:40 51°10.61 2°40.119 14 340 3.6 101180 44
2011-02-21 16:41 51°10.718 2°40.449 12.4 342 3.6 101180 45
2011-02-21 16:42 51°10.829 2°40.767 14.9 345 3.6 101180 46
2011-02-21 16:43 51°10.942 2°41.097 14.5 343 3.6 101180 46
2011-02-21 16:44 51°11.051 2°41.423 11.9 341 3.7 101190 45
2011-02-21 16:45 51°11.09 2°41.75 10.6 332 3.7 101190 46
2011-02-21 16:46 51°11.084 2°41.935 7.7 324 3.7 101210 45
2011-02-21 16:47 51°11.076 2°41.982 7.3 246 3.6 101230 44
2011-02-21 16:48 51°11.078 2°41.994 7.4 261 3.6 101240 44
2011-02-21 16:49 51°11.082 2°42 4.6 263 3.6 101250 44
2011-02-21 16:50 51°11.088 2°42.006 6.1 262 3.7 101250 44
2011-02-21 16:51 51°11.095 2°42.012 6.6 261 3.6 101240 44
2011-02-21 16:52 51°11.101 2°42.019 8.3 260 3.6 101240 46
2011-02-21 16:53 51°11.109 2°42.026 10.4 258 3.6 101240 45
2011-02-21 16:54 51°11.116 2°42.03 7.9 256 3.6 101240 45
2011-02-21 16:55 51°11.124 2°42.035 9.1 253 3.6 101250 44
2011-02-21 16:56 51°11.132 2°42.04 8.4 256 3.6 101250 45
2011-02-21 16:57 51°11.14 2°42.047 5.8 252 3.7 101250 46
2011-02-21 16:58 51°11.146 2°42.051 6.9 255 3.8 101250 46
2011-02-21 16:59 51°11.154 2°42.055 8.6 256 3.7 101250 45
2011-02-21 17:00 51°11.16 2°42.06 8.7 257 3.7 101250 45
2011-02-21 17:01 51°11.166 2°42.063 10.1 255 3.7 101250 45
2011-02-21 17:02 51°11.173 2°42.066 9.2 257 3.6 101250 44
2011-02-21 17:03 51°11.18 2°42.069 7.3 252 3.6 101250 44
2011-02-21 17:04 51°11.187 2°42.071 5.7 252 3.6 101260 44
2011-02-21 17:05 51°11.194 2°42.073 7.1 255 3.6 101260 44
2011-02-21 17:06 51°11.202 2°42.075 8.2 257 3.6 101260 44
2011-02-21 17:07 51°11.208 2°42.076 8.2 251 3.6 101260 44
2011-02-21 17:08 51°11.216 2°42.077 8.5 258 3.6 101240 45
2011-02-21 17:09 51°11.219 2°42.078 6.8 244 3.6 101240 45
2011-02-21 17:10 51°11.207 2°42.089 6 31 3.6 101240 45
2011-02-21 17:11 51°11.184 2°42.17 9.6 327 3.6 101220 45
2011-02-21 17:12 51°11.147 2°42.37 11.3 328 3.5 101220 43
2011-02-21 17:13 51°11.134 2°42.704 13.2 334 3.5 101230 44
2011-02-21 17:14 51°11.152 2°43.057 11.8 333 3.6 101230 44
2011-02-21 17:15 51°11.178 2°43.416 11.6 338 3.5 101230 44
2011-02-21 17:16 51°11.271 2°43.741 12.3 337 3.5 101220 43
2011-02-21 17:17 51°11.332 2°44.089 13.4 334 3.5 101230 44
2011-02-21 17:18 51°11.381 2°44.436 12.5 333 3.5 101230 43
2011-02-21 17:19 51°11.431 2°44.776 12.6 338 3.5 101230 44
2011-02-21 17:20 51°11.494 2°45.116 13.9 338 3.5 101230 43
2011-02-21 17:21 51°11.564 2°45.454 11.7 338 3.5 101220 43
2011-02-21 17:22 51°11.633 2°45.793 12.8 340 3.5 101220 43
2011-02-21 17:23 51°11.705 2°46.137 12.2 335 3.5 101220 44
2011-02-21 17:24 51°11.79 2°46.46 12.2 338 3.5 101220 44
2011-02-21 17:25 51°11.876 2°46.792 11.6 338 3.4 101210 44
2011-02-21 17:26 51°11.96 2°47.118 13.8 337 3.4 101210 44
2011-02-21 17:27 51°12.051 2°47.431 10.8 340 3.4 101210 43
2011-02-21 17:28 51°12.145 2°47.747 13.8 339 3.4 101220 43
2011-02-21 17:29 51°12.239 2°48.063 14 342 3.4 101210 43
2011-02-21 17:30 51°12.342 2°48.38 11.3 339 3.4 101210 43
2011-02-21 17:31 51°12.441 2°48.687 12.6 338 3.4 101220 43
2011-02-21 17:32 51°12.542 2°48.997 10.9 340 3.4 101230 43
2011-02-21 17:33 51°12.645 2°49.313 13.6 341 3.4 101210 43
2011-02-21 17:34 51°12.748 2°49.615 11.7 340 3.4 101210 43
2011-02-21 17:35 51°12.856 2°49.925 10 341 3.4 101220 43
2011-02-21 17:36 51°12.965 2°50.222 11.6 342 3.4 101220 42
2011-02-21 17:37 51°13.078 2°50.53 9.7 338 3.4 101220 43
2011-02-21 17:38 51°13.178 2°50.835 10.8 335 3.4 101220 42
2011-02-21 17:39 51°13.274 2°51.149 11 338 3.4 101240 43
2011-02-21 17:40 51°13.37 2°51.468 12 338 3.4 101230 43
2011-02-21 17:41 51°13.469 2°51.775 9.6 338 3.4 101210 42
2011-02-21 17:42 51°13.574 2°52.08 11.1 337 3.4 101240 43
2011-02-21 17:43 51°13.685 2°52.379 10.4 340 3.4 101240 43
2011-02-21 17:44 51°13.801 2°52.671 11.8 344 3.4 101230 41
2011-02-21 17:45 51°13.917 2°52.956 12.2 341 3.3 101230 43
2011-02-21 17:46 51°14.025 2°53.225 9.9 337 3.3 101250 42
2011-02-21 17:47 51°14.095 2°53.399 8.4 343 3.3 101250 43
2011-02-21 17:48 51°14.151 2°53.525 10.2 343 3.2 101250 42
2011-02-21 17:49 51°14.197 2°53.625 8.2 343 3.2 101260 42
2011-02-21 17:50 51°14.231 2°53.697 9.7 343 3.1 101250 42
2011-02-21 17:51 51°14.257 2°53.75 8.9 349 3.1 101260 43
2011-02-21 17:52 51°14.277 2°53.786 7.4 350 3.1 101260 40
2011-02-21 17:53 51°14.293 2°53.806 8.6 351 3.1 101260 41
2011-02-21 17:54 51°14.306 2°53.815 8.1 353 3 101270 42
2011-02-21 17:55 51°14.315 2°53.817 5.1 353 3.1 101260 44
2011-02-21 17:56 51°14.323 2°53.813 7.7 3 3.1 101270 42
2011-02-21 17:57 51°14.33 2°53.805 6 -999 3.1 101270 43
2011-02-21 17:58 51°14.34 2°53.799 5.7 3 3.1 101270 44
2011-02-21 17:59 51°14.353 2°53.798 9.8 359 3.1 101280 42
2011-02-21 18:00 51°14.363 2°53.793 4.7 4 3.1 101270 42
2011-02-21 18:01 51°14.371 2°53.784 6 7 3.1 101280 43
2011-02-21 18:02 51°14.38 2°53.775 6.1 2 3.1 101280 41
2011-02-21 18:03 51°14.391 2°53.77 6.8 356 3 101280 41
2011-02-21 18:04 51°14.404 2°53.781 6.7 348 3 101280 43
2011-02-21 18:05 51°14.434 2°53.855 8.9 347 3 101280 43
2011-02-21 18:06 51°14.486 2°53.983 8.6 342 3 101270 43
2011-02-21 18:07 51°14.553 2°54.158 10.7 343 3 101270 41
2011-02-21 18:08 51°14.62 2°54.369 9.1 339 3 101260 41
2011-02-21 18:09 51°14.648 2°54.607 12.5 333 3 101270 43
2011-02-21 18:10 51°14.592 2°54.848 8.8 328 3 101250 42
2011-02-21 18:11 51°14.478 2°55.04 12.3 32 3 101250 41
2011-02-21 18:12 51°14.342 2°55.202 10.6 316 3 101250 41
2011-02-21 18:13 51°14.201 2°55.352 7.7 320 3 101270 41
2011-02-21 18:14 51°14.069 2°55.452 6.9 316 2.9 101270 41
2011-02-21 18:15 51°13.959 2°55.528 8 36 2.9 101270 41
2011-02-21 18:16 51°13.868 2°55.592 7.2 34 2.9 101280 39
2011-02-21 18:17 51°13.793 2°55.657 6.9 316 2.9 101280 42
2011-02-21 18:18 51°13.734 2°55.75 5.4 324 2.9 101280 41
2011-02-21 18:19 51°13.692 2°55.842 7.6 324 2.9 101280 42
2011-02-21 18:20 51°13.671 2°55.922 7 325 2.9 101290 42
2011-02-21 18:21 51°13.662 2°55.959 4.2 29 2.8 101290 42